Terminal Aerodrome Forecast
Issued by NWS

Home | Current Version | Previous Version | Text Only | Print | Product List | Glossary On
Versions: 1 2 3 4 5 6 7 8 9 10 11 12 13 14
155
FTUS44 KBMX 251229 AAA
TAFANB
TAF AMD
KANB 251229Z 2512/2612 17006KT P6SM OVC007
     FM251400 23002KT P6SM BKN012 BKN100
     FM251500 24005KT P6SM SCT015 BKN100
     FM251700 26003KT P6SM BKN050
     FM252300 VRB02KT P6SM SCT060=

USA.gov is the U.S. government's official web portal to all federal, state and local government web resources and services.